createdAt,value
2023-03-22T00:01:33.476Z,100692.88
2023-03-22T00:04:01.539Z,100691.47
2023-03-22T00:06:29.115Z,100688.91
2023-03-22T00:08:57.056Z,100694.19
2023-03-22T00:11:26.162Z,100693.88
2023-03-22T00:13:55.211Z,100697.03
2023-03-22T00:16:22.945Z,100699.88
2023-03-22T00:18:51.230Z,100688.41
2023-03-22T00:21:18.987Z,100698.53
2023-03-22T00:23:46.947Z,100688.63
2023-03-22T00:26:15.493Z,100684.53
2023-03-22T00:28:43.839Z,100698.38
2023-03-22T00:31:11.424Z,100692.22
2023-03-22T00:33:39.376Z,100681.84
2023-03-22T00:36:08.656Z,100684.66
2023-03-22T00:38:44.092Z,100686.09
2023-03-22T00:41:14.783Z,100674.22
2023-03-22T00:43:43.220Z,100672.50
2023-03-22T00:46:11.696Z,100669.00
2023-03-22T00:48:39.813Z,100663.13
2023-03-22T00:51:08.224Z,100670.50
2023-03-22T00:53:37.647Z,100670.44
2023-03-22T00:56:06.291Z,100675.44
2023-03-22T00:58:44.745Z,100667.53
2023-03-22T01:01:14.354Z,100666.16
2023-03-22T01:03:43.229Z,100666.63
2023-03-22T01:06:14.322Z,100652.50
2023-03-22T01:08:42.820Z,100659.81
2023-03-22T01:11:10.558Z,100665.84
2023-03-22T01:13:38.976Z,100663.94
2023-03-22T01:16:07.326Z,100666.75
2023-03-22T01:18:36.196Z,100664.28
2023-03-22T01:21:04.020Z,100664.41
2023-03-22T01:23:33.695Z,100666.31
2023-03-22T01:26:01.832Z,100666.44
2023-03-22T01:28:30.425Z,100665.66
2023-03-22T01:31:01.785Z,100657.25
2023-03-22T01:33:30.128Z,100659.56
2023-03-22T01:35:58.107Z,100660.75
2023-03-22T01:38:26.690Z,100661.31
2023-03-22T01:40:58.973Z,100662.41
2023-03-22T01:43:29.481Z,100658.81
2023-03-22T01:45:58.762Z,100658.88
2023-03-22T01:48:50.466Z,100662.75
2023-03-22T01:51:25.789Z,100666.66
2023-03-22T01:54:09.775Z,100661.06
2023-03-22T01:56:40.616Z,100666.66
2023-03-22T01:59:14.730Z,100664.44
2023-03-22T02:02:03.710Z,100662.78
2023-03-22T02:04:34.555Z,100666.69
2023-03-22T02:07:10.348Z,100655.69
2023-03-22T02:09:42.784Z,100660.53
2023-03-22T02:12:31.192Z,100659.94
2023-03-22T02:15:26.824Z,100659.16
2023-03-22T02:18:28.500Z,100660.75
2023-03-22T02:21:17.320Z,100655.81
2023-03-22T02:24:03.961Z,100653.81
2023-03-22T02:26:51.063Z,100647.19
2023-03-22T02:29:26.780Z,100646.75
2023-03-22T02:32:20.031Z,100644.75
2023-03-22T02:35:06.438Z,100637.31
2023-03-22T02:37:34.860Z,100641.72
2023-03-22T02:40:22.830Z,100645.41
2023-03-22T02:43:00.803Z,100634.56
2023-03-22T02:45:35.075Z,100636.78
2023-03-22T02:48:06.951Z,100645.50
2023-03-22T02:50:40.158Z,100647.06
2023-03-22T02:53:16.911Z,100642.94
2023-03-22T02:55:51.050Z,100643.72
2023-03-22T02:58:48.450Z,100648.09
2023-03-22T03:01:38.521Z,100645.63
2023-03-22T03:04:10.168Z,100652.00
2023-03-22T03:06:41.234Z,100640.38
2023-03-22T03:09:09.418Z,100644.84
2023-03-22T03:11:37.500Z,100643.97
2023-03-22T03:14:05.999Z,100649.31
2023-03-22T03:16:37.362Z,100653.69
2023-03-22T03:19:14.888Z,100655.22
2023-03-22T03:22:01.200Z,100654.22
2023-03-22T03:24:36.938Z,100659.72
2023-03-22T03:27:08.742Z,100658.63
2023-03-22T03:30:02.327Z,100653.25
2023-03-22T03:32:35.472Z,100657.69
2023-03-22T03:35:11.366Z,100658.16
2023-03-22T03:37:42.502Z,100657.59
2023-03-22T03:40:17.791Z,100659.78
2023-03-22T03:42:50.125Z,100659.75
2023-03-22T03:45:19.067Z,100659.16
2023-03-22T03:47:47.713Z,100662.16
2023-03-22T03:50:16.831Z,100666.13
2023-03-22T03:52:44.549Z,100666.88
2023-03-22T03:55:12.532Z,100665.88
2023-03-22T03:57:40.394Z,100663.41
2023-03-22T04:00:09.515Z,100658.69
2023-03-22T04:02:55.762Z,100661.59
2023-03-22T04:05:46.619Z,100661.38
2023-03-22T04:08:14.567Z,100660.06
2023-03-22T04:10:43.036Z,100662.19
2023-03-22T04:13:10.815Z,100659.66
2023-03-22T04:15:38.994Z,100661.94
2023-03-22T04:18:11.555Z,100657.38
2023-03-22T04:20:42.092Z,100666.31
2023-03-22T04:23:11.216Z,100659.66
2023-03-22T04:25:40.031Z,100657.47
2023-03-22T04:28:13.836Z,100657.16
2023-03-22T04:30:45.866Z,100659.91
2023-03-22T04:33:32.881Z,100666.72
2023-03-22T04:36:22.266Z,100672.66
2023-03-22T04:39:14.343Z,100667.72
2023-03-22T04:41:47.991Z,100661.41
2023-03-22T04:44:15.873Z,100664.25
2023-03-22T04:46:49.795Z,100659.41
2023-03-22T04:49:18.037Z,100662.19
2023-03-22T04:51:46.460Z,100656.47
2023-03-22T04:54:27.134Z,100660.00
2023-03-22T04:56:55.125Z,100658.72
2023-03-22T04:59:24.841Z,100662.75
2023-03-22T05:01:53.188Z,100666.22
2023-03-22T05:04:27.539Z,100665.81
2023-03-22T05:07:02.956Z,100670.38
2023-03-22T05:09:48.930Z,100666.75
2023-03-22T05:12:18.435Z,100668.66
2023-03-22T05:14:57.940Z,100672.25
2023-03-22T05:17:31.945Z,100676.00
2023-03-22T05:20:09.280Z,100685.81
2023-03-22T05:22:41.111Z,100684.03
2023-03-22T05:25:12.031Z,100687.31
2023-03-22T05:27:44.571Z,100682.56
2023-03-22T05:30:33.977Z,100678.72
2023-03-22T05:33:12.952Z,100688.59
2023-03-22T05:35:45.201Z,100688.94
2023-03-22T05:38:13.291Z,100684.13
2023-03-22T05:40:46.640Z,100692.34
2023-03-22T05:43:15.047Z,100693.97
2023-03-22T05:45:48.512Z,100692.53
2023-03-22T05:48:36.687Z,100688.38
2023-03-22T05:51:09.362Z,100700.09
2023-03-22T05:53:37.859Z,100696.34
2023-03-22T05:56:15.897Z,100700.22
2023-03-22T05:58:47.466Z,100695.63
2023-03-22T06:01:20.679Z,100699.53
2023-03-22T06:03:48.969Z,100703.81
2023-03-22T06:06:32.591Z,100708.06
2023-03-22T06:09:16.888Z,100702.44
2023-03-22T06:11:49.148Z,100708.25
2023-03-22T06:14:17.879Z,100704.47
2023-03-22T06:16:56.463Z,100701.31
2023-03-22T06:19:25.799Z,100699.78
2023-03-22T06:21:54.744Z,100710.66
2023-03-22T06:24:25.898Z,100706.94
2023-03-22T06:26:53.652Z,100714.44
2023-03-22T06:29:21.775Z,100715.66
2023-03-22T06:31:51.005Z,100715.44
2023-03-22T06:34:19.559Z,100713.41
2023-03-22T06:36:48.773Z,100715.66
2023-03-22T06:39:25.822Z,100711.59
2023-03-22T06:41:54.126Z,100714.94
2023-03-22T06:44:22.940Z,100717.97
2023-03-22T06:46:53.270Z,100708.91
2023-03-22T06:49:59.981Z,100711.56
2023-03-22T06:52:41.026Z,100713.78
2023-03-22T06:55:09.660Z,100720.94
2023-03-22T06:57:37.503Z,100725.56
2023-03-22T07:00:05.915Z,100716.06
2023-03-22T07:02:33.924Z,100710.09
2023-03-22T07:05:16.724Z,100712.69
2023-03-22T07:07:44.633Z,100711.75
2023-03-22T07:10:12.827Z,100715.72
2023-03-22T07:12:40.883Z,100717.31
2023-03-22T07:15:13.583Z,100712.63
2023-03-22T07:17:54.813Z,100721.75
2023-03-22T07:20:23.043Z,100724.88
2023-03-22T07:22:51.707Z,100727.50
2023-03-22T07:25:22.226Z,100734.88
2023-03-22T07:27:57.198Z,100731.38
2023-03-22T07:30:25.514Z,100737.78
2023-03-22T07:32:53.667Z,100731.31
2023-03-22T07:35:21.798Z,100734.09
2023-03-22T07:37:49.969Z,100732.25
2023-03-22T07:40:24.443Z,100745.19
2023-03-22T07:42:55.828Z,100734.09
2023-03-22T07:45:51.152Z,100746.47
2023-03-22T07:48:39.427Z,100735.84
2023-03-22T07:51:26.163Z,100744.06
2023-03-22T07:53:54.500Z,100745.28
2023-03-22T07:56:22.988Z,100750.66
2023-03-22T07:58:50.823Z,100748.88
2023-03-22T08:01:19.328Z,100755.25
2023-03-22T08:03:59.004Z,100754.59
2023-03-22T08:06:37.474Z,100744.81
2023-03-22T08:09:08.621Z,100755.38
2023-03-22T08:11:36.943Z,100749.63
2023-03-22T08:14:04.924Z,100758.09
2023-03-22T08:16:35.700Z,100749.63
2023-03-22T08:19:05.617Z,100754.88
2023-03-22T08:21:37.363Z,100755.88
2023-03-22T08:24:07.942Z,100754.03
2023-03-22T08:27:08.227Z,100764.63
2023-03-22T08:29:47.704Z,100755.50
2023-03-22T08:32:16.844Z,100751.06
2023-03-22T08:34:44.567Z,100754.44
2023-03-22T08:37:13.164Z,100754.88
2023-03-22T08:39:43.584Z,100753.50
2023-03-22T08:42:32.777Z,100756.91
2023-03-22T08:45:00.434Z,100743.84
2023-03-22T08:47:30.488Z,100755.38
2023-03-22T08:50:02.514Z,100754.28
2023-03-22T08:52:56.722Z,100762.06
2023-03-22T08:55:31.893Z,100758.81
2023-03-22T08:58:16.689Z,100760.19
2023-03-22T09:01:14.753Z,100756.00
2023-03-22T09:03:53.670Z,100760.00
2023-03-22T09:06:21.806Z,100757.78
2023-03-22T09:08:52.359Z,100758.84
2023-03-22T09:11:22.998Z,100762.06
2023-03-22T09:13:51.559Z,100763.88
2023-03-22T09:16:20.582Z,100766.88
2023-03-22T09:18:49.326Z,100762.97
2023-03-22T09:21:19.183Z,100762.34
2023-03-22T09:23:52.369Z,100772.06
2023-03-22T09:26:25.949Z,100761.00
2023-03-22T09:28:55.592Z,100772.31
2023-03-22T09:31:23.380Z,100767.50
2023-03-22T09:34:02.935Z,100760.81
2023-03-22T09:36:32.550Z,100762.84
2023-03-22T09:39:01.148Z,100757.34
2023-03-22T09:41:38.471Z,100767.44
2023-03-22T09:44:08.469Z,100769.41
2023-03-22T09:46:40.885Z,100765.28
2023-03-22T09:49:18.270Z,100759.41
2023-03-22T09:51:47.403Z,100759.31
2023-03-22T09:54:19.868Z,100758.31
2023-03-22T09:56:51.353Z,100754.59
2023-03-22T09:59:30.898Z,100756.19
2023-03-22T10:02:00.671Z,100749.50
2023-03-22T10:04:28.986Z,100747.56
2023-03-22T10:07:19.744Z,100749.78
2023-03-22T10:10:02.106Z,100750.44
2023-03-22T10:12:33.777Z,100751.47
2023-03-22T10:15:14.285Z,100747.53
2023-03-22T10:17:48.359Z,100747.19
2023-03-22T10:20:19.342Z,100742.16
2023-03-22T10:22:47.867Z,100743.69
2023-03-22T10:25:18.551Z,100742.53
2023-03-22T10:27:48.768Z,100746.44
2023-03-22T10:30:21.113Z,100742.53
2023-03-22T10:32:57.844Z,100744.47
2023-03-22T10:35:26.894Z,100735.13
2023-03-22T10:37:56.417Z,100738.16
2023-03-22T10:40:29.243Z,100733.53
2023-03-22T10:42:58.310Z,100728.91
2023-03-22T10:45:26.799Z,100729.59
2023-03-22T10:48:09.965Z,100723.09
2023-03-22T10:50:43.413Z,100719.59
2023-03-22T10:53:14.279Z,100728.50
2023-03-22T10:55:43.679Z,100721.88
2023-03-22T10:58:14.401Z,100723.00
2023-03-22T11:00:45.355Z,100719.59
2023-03-22T11:03:28.500Z,100711.03
2023-03-22T11:06:00.569Z,100707.72
2023-03-22T11:08:28.205Z,100709.09
2023-03-22T11:10:59.639Z,100718.22
2023-03-22T11:13:28.092Z,100709.09
2023-03-22T11:16:02.437Z,100701.34
2023-03-22T11:18:32.372Z,100701.25
2023-03-22T11:21:21.512Z,100705.06
2023-03-22T11:23:56.005Z,100710.66
2023-03-22T11:26:28.821Z,100698.97
2023-03-22T11:29:02.783Z,100691.91
2023-03-22T11:31:48.720Z,100703.09
2023-03-22T11:34:18.208Z,100701.16
2023-03-22T11:36:51.549Z,100696.81
2023-03-22T11:39:19.206Z,100693.31
2023-03-22T11:41:47.359Z,100686.88
2023-03-22T11:44:19.271Z,100682.88
2023-03-22T11:46:56.006Z,100685.63
2023-03-22T11:49:30.213Z,100680.09
2023-03-22T11:52:07.281Z,100674.75
2023-03-22T11:54:35.988Z,100671.81
2023-03-22T11:57:05.038Z,100669.91
2023-03-22T11:59:40.437Z,100660.88
2023-03-22T12:02:23.902Z,100667.28
2023-03-22T12:04:54.315Z,100658.81
2023-03-22T12:07:24.717Z,100660.44
2023-03-22T12:10:12.671Z,100661.09
2023-03-22T12:12:44.661Z,100654.84
2023-03-22T12:15:16.280Z,100650.66
2023-03-22T12:17:48.997Z,100655.19
2023-03-22T12:20:21.283Z,100645.97
2023-03-22T12:22:52.984Z,100653.16
2023-03-22T12:25:22.779Z,100653.72
2023-03-22T12:27:54.243Z,100637.53
2023-03-22T12:30:27.122Z,100642.13
2023-03-22T12:33:06.966Z,100634.66
2023-03-22T12:35:37.120Z,100643.34
2023-03-22T12:38:11.244Z,100634.03
2023-03-22T12:40:41.174Z,100634.84
2023-03-22T12:43:24.201Z,100627.63
2023-03-22T12:45:55.161Z,100625.34
2023-03-22T12:48:32.133Z,100611.47
2023-03-22T12:51:08.019Z,100618.47
2023-03-22T12:53:42.684Z,100616.09
2023-03-22T12:56:16.213Z,100600.34
2023-03-22T12:58:48.263Z,100604.91
2023-03-22T13:01:29.087Z,100602.69
2023-03-22T13:03:59.695Z,100601.91
2023-03-22T13:06:56.532Z,100593.81
2023-03-22T13:09:37.192Z,100600.50
2023-03-22T13:12:17.077Z,100599.16
2023-03-22T13:14:57.132Z,100588.75
2023-03-22T13:17:25.313Z,100588.63
2023-03-22T13:19:55.508Z,100594.19
2023-03-22T13:22:26.342Z,100585.78
2023-03-22T13:25:04.554Z,100594.00
2023-03-22T13:27:50.974Z,100580.13
2023-03-22T13:30:22.152Z,100584.84
2023-03-22T13:32:55.331Z,100571.97
2023-03-22T13:35:28.280Z,100575.28
2023-03-22T13:38:02.339Z,100573.09
2023-03-22T13:40:36.038Z,100567.59
2023-03-22T13:43:12.639Z,100560.47
2023-03-22T13:45:58.362Z,100571.16
2023-03-22T13:48:34.265Z,100567.38
2023-03-22T13:51:12.652Z,100566.22
2023-03-22T13:53:44.059Z,100560.97
2023-03-22T13:56:13.510Z,100577.50
2023-03-22T13:58:41.440Z,100558.72
2023-03-22T14:01:28.529Z,100556.88
2023-03-22T14:04:01.552Z,100552.97
2023-03-22T14:06:33.936Z,100546.56
2023-03-22T14:09:12.193Z,100547.41
2023-03-22T14:11:48.272Z,100540.19
2023-03-22T14:14:19.471Z,100536.94
2023-03-22T14:16:51.300Z,100537.06
2023-03-22T14:19:25.989Z,100523.56
